Time;durP1;ratioP1;P1;durP2;ratioP2;P2;SDS_P1;SDS_P2;PMS_P1;PMS_P2;Temp;Humidity;BMP_temperature;BMP_pressure;BME280_temperature;BME280_humidity;BME280_pressure;Samples;Min_cycle;Max_cycle;Signal;HPM_P1;HPM_P2
2021/12/28 00:01:02;;;;;;;29.00;5.47;;;11.00;99.90;;;;;;5051698;28;20309;-57
2021/12/28 00:03:28;;;;;;;41.63;5.57;;;11.00;99.90;;;;;;5051430;28;20187;-57
2021/12/28 00:05:54;;;;;;;36.80;5.53;;;11.00;99.90;;;;;;5052246;28;20177;-57
2021/12/28 00:08:20;;;;;;;42.10;6.00;;;11.10;99.90;;;;;;5050603;28;20269;-57
2021/12/28 00:10:49;;;;;;;31.27;5.03;;;11.00;99.90;;;;;;5051507;28;20201;-58
2021/12/28 00:13:16;;;;;;;34.07;6.57;;;11.00;99.90;;;;;;5051491;28;20285;-58
2021/12/28 00:18:15;;;;;;;33.00;4.80;;;11.00;99.90;;;;;;5051378;28;20547;-57
2021/12/28 00:20:44;;;;;;;27.03;5.00;;;11.00;99.90;;;;;;5051574;28;20603;-57
2021/12/28 00:23:18;;;;;;;31.13;4.17;;;11.00;99.90;;;;;;5051625;28;20184;-57
2021/12/28 00:25:50;;;;;;;23.63;3.63;;;10.90;99.90;;;;;;5051421;28;20185;-57
2021/12/28 00:28:16;;;;;;;37.67;4.27;;;10.90;99.90;;;;;;5051381;28;20177;-57
2021/12/28 00:30:43;;;;;;;27.63;4.00;;;10.90;99.90;;;;;;5051227;28;20302;-57
2021/12/28 00:33:09;;;;;;;30.57;4.27;;;10.80;99.90;;;;;;5051207;28;20246;-57
2021/12/28 00:35:37;;;;;;;28.93;3.67;;;10.80;99.90;;;;;;5051298;28;20186;-57
2021/12/28 00:38:05;;;;;;;30.77;3.77;;;10.80;99.90;;;;;;5051305;28;20204;-57
2021/12/28 00:40:31;;;;;;;32.17;3.83;;;10.80;99.90;;;;;;5050946;28;20178;-57
2021/12/28 00:42:58;;;;;;;24.90;3.20;;;10.80;99.90;;;;;;5050346;28;20700;-57
2021/12/28 00:45:24;;;;;;;19.83;2.80;;;10.80;99.90;;;;;;5051324;28;20169;-57
2021/12/28 00:47:50;;;;;;;18.17;3.07;;;10.90;99.90;;;;;;5050936;28;20260;-57
2021/12/28 00:50:18;;;;;;;16.47;2.57;;;10.80;99.90;;;;;;5051207;28;20169;-58
2021/12/28 00:52:45;;;;;;;14.00;2.30;;;10.80;99.90;;;;;;5050759;28;20209;-58
2021/12/28 00:55:12;;;;;;;19.47;2.33;;;10.90;99.90;;;;;;5051209;28;20173;-58
2021/12/28 00:57:38;;;;;;;19.27;2.47;;;10.90;99.90;;;;;;5050784;28;20165;-59
2021/12/28 01:00:09;;;;;;;13.80;1.80;;;10.90;99.90;;;;;;5050848;28;20177;-59
2021/12/28 01:02:35;;;;;;;11.67;2.13;;;10.90;99.90;;;;;;5050397;28;20184;-57
2021/12/28 01:05:01;;;;;;;13.77;1.80;;;10.90;99.90;;;;;;5050973;28;20184;-58
2021/12/28 01:07:27;;;;;;;12.30;1.80;;;10.90;99.90;;;;;;5050035;28;20185;-57
2021/12/28 01:09:53;;;;;;;15.53;1.97;;;11.00;99.90;;;;;;5050584;28;20265;-57
2021/12/28 01:12:19;;;;;;;7.90;1.43;;;;;;;;;;5050366;28;20295;-57
2021/12/28 01:14:45;;;;;;;10.03;1.63;;;11.00;99.90;;;;;;5050734;28;20184;-57
2021/12/28 01:17:11;;;;;;;8.73;1.60;;;11.00;99.90;;;;;;5050635;28;20181;-57
2021/12/28 01:19:36;;;;;;;11.93;2.07;;;11.00;99.90;;;;;;5050437;28;20231;-57
2021/12/28 01:22:03;;;;;;;10.33;1.70;;;11.00;99.90;;;;;;5048948;28;20209;-57
2021/12/28 01:24:30;;;;;;;13.63;1.73;;;10.90;99.90;;;;;;5050457;28;20192;-57
2021/12/28 01:26:56;;;;;;;12.30;1.27;;;10.90;99.90;;;;;;5050758;28;20545;-57
2021/12/28 01:29:22;;;;;;;10.03;1.40;;;10.80;99.90;;;;;;5050116;28;20224;-57
2021/12/28 01:31:48;;;;;;;12.87;1.60;;;10.80;99.90;;;;;;5050656;28;20196;-57
2021/12/28 01:34:14;;;;;;;5.33;1.17;;;10.70;99.90;;;;;;5050505;28;20185;-57
2021/12/28 01:36:40;;;;;;;9.83;1.20;;;10.70;99.90;;;;;;5050464;28;20178;-57
2021/12/28 01:39:07;;;;;;;10.93;1.53;;;10.60;99.90;;;;;;5050358;28;20591;-57
2021/12/28 01:41:34;;;;;;;12.07;1.63;;;10.50;99.90;;;;;;5049986;28;20186;-57
2021/12/28 01:44:03;;;;;;;13.00;1.40;;;10.50;99.90;;;;;;5050169;28;20184;-57
2021/12/28 01:46:29;;;;;;;6.77;1.10;;;10.50;99.90;;;;;;5049861;28;20188;-58
2021/12/28 01:48:54;;;;;;;6.73;1.27;;;10.50;99.90;;;;;;5050238;28;20212;-58
2021/12/28 01:51:23;;;;;;;6.40;1.07;;;10.50;99.90;;;;;;5049926;28;20177;-58
2021/12/28 01:53:52;;;;;;;10.70;1.63;;;10.50;99.90;;;;;;5046999;28;20213;-57
2021/12/28 01:56:34;;;;;;;7.37;1.33;;;10.50;99.90;;;;;;5048943;28;20169;-57
2021/12/28 01:59:01;;;;;;;6.27;1.80;;;10.50;99.90;;;;;;5050193;28;20188;-57
2021/12/28 02:01:27;;;;;;;6.00;1.27;;;10.50;99.90;;;;;;5049979;28;20185;-57
2021/12/28 02:03:53;;;;;;;8.90;1.30;;;10.50;99.90;;;;;;5049729;28;20176;-57
2021/12/28 02:06:20;;;;;;;7.23;1.10;;;10.60;99.90;;;;;;5050465;28;20173;-57
2021/12/28 02:08:45;;;;;;;11.43;1.43;;;10.60;99.90;;;;;;5050103;28;20177;-57
2021/12/28 02:11:13;;;;;;;6.73;1.33;;;10.60;99.90;;;;;;5049557;28;20189;-57
2021/12/28 02:13:40;;;;;;;10.33;1.13;;;10.60;99.90;;;;;;5049925;28;20209;-57
2021/12/28 02:16:06;;;;;;;8.23;1.47;;;10.60;99.90;;;;;;5049930;28;20178;-58
2021/12/28 02:18:33;;;;;;;5.50;1.00;;;10.50;99.90;;;;;;5052336;28;20191;-57
2021/12/28 02:21:02;;;;;;;4.80;0.60;;;10.50;99.90;;;;;;5053950;28;20177;-57
2021/12/28 02:23:27;;;;;;;2.53;0.70;;;10.60;99.90;;;;;;5053815;28;20181;-57
2021/12/28 02:25:54;;;;;;;3.33;0.70;;;10.50;99.90;;;;;;5053968;28;20248;-57
2021/12/28 02:28:20;;;;;;;0.40;0.40;;;10.50;99.90;;;;;;5053534;28;20188;-57
2021/12/28 02:30:49;;;;;;;0.50;0.30;;;10.50;99.90;;;;;;5053565;28;20334;-57
2021/12/28 02:33:17;;;;;;;2.17;0.57;;;10.50;99.90;;;;;;5053473;28;20257;-57
2021/12/28 02:35:43;;;;;;;1.30;0.47;;;10.50;99.90;;;;;;5053583;28;20185;-57
2021/12/28 02:38:11;;;;;;;1.50;0.57;;;10.60;99.90;;;;;;5053702;28;20169;-56
2021/12/28 02:40:38;;;;;;;2.20;0.50;;;10.50;99.90;;;;;;5053666;28;20262;-57
2021/12/28 02:43:08;;;;;;;1.93;0.43;;;10.50;99.90;;;;;;5053093;28;20702;-57
2021/12/28 02:45:36;;;;;;;0.57;0.40;;;10.50;99.90;;;;;;5053322;28;20273;-56
2021/12/28 02:48:04;;;;;;;1.43;0.60;;;10.50;99.90;;;;;;5051877;28;20177;-57
2021/12/28 02:50:34;;;;;;;4.63;0.60;;;10.40;99.90;;;;;;5041318;28;20196;-60
2021/12/28 02:53:00;;;;;;;2.03;0.40;;;10.40;99.90;;;;;;5053079;28;20209;-57
2021/12/28 02:55:29;;;;;;;3.57;0.60;;;10.40;99.90;;;;;;5053063;28;20267;-56
2021/12/28 02:57:58;;;;;;;5.23;0.70;;;10.40;99.90;;;;;;5052955;28;20264;-57
2021/12/28 03:00:31;;;;;;;5.00;1.00;;;10.40;99.90;;;;;;5053317;28;20180;-56
2021/12/28 03:02:57;;;;;;;5.50;0.60;;;10.40;99.90;;;;;;5053130;28;20679;-57
2021/12/28 03:05:23;;;;;;;2.83;0.63;;;10.40;99.90;;;;;;5052848;28;20177;-57
2021/12/28 03:07:49;;;;;;;6.70;0.80;;;10.40;99.90;;;;;;5052900;28;20174;-56
2021/12/28 03:10:15;;;;;;;6.80;0.90;;;10.40;99.90;;;;;;5051794;28;20172;-57
2021/12/28 03:12:41;;;;;;;3.97;0.93;;;10.40;99.90;;;;;;5052535;28;20296;-56
2021/12/28 03:15:07;;;;;;;5.07;0.70;;;10.40;99.90;;;;;;5052755;28;20250;-57
2021/12/28 03:17:33;;;;;;;4.17;0.73;;;10.30;99.90;;;;;;5052871;28;20181;-57
2021/12/28 03:19:59;;;;;;;4.13;0.97;;;10.30;99.90;;;;;;5052658;28;20286;-56
2021/12/28 03:22:25;;;;;;;5.83;1.10;;;10.30;99.90;;;;;;5052123;28;20177;-56
2021/12/28 03:24:51;;;;;;;10.00;1.70;;;10.30;99.90;;;;;;5052994;28;20307;-56
2021/12/28 03:27:17;;;;;;;8.70;1.33;;;10.30;99.90;;;;;;5052479;28;20627;-56
2021/12/28 03:29:43;;;;;;;8.73;2.03;;;10.30;99.90;;;;;;5051744;28;20320;-57
2021/12/28 03:32:09;;;;;;;10.20;1.90;;;10.10;99.90;;;;;;5052399;28;20312;-56
2021/12/28 03:34:35;;;;;;;8.77;1.80;;;10.20;99.90;;;;;;5052628;28;20588;-57
2021/12/28 03:37:01;;;;;;;6.47;1.77;;;10.20;99.90;;;;;;5052090;28;20196;-56
2021/12/28 03:39:27;;;;;;;8.53;2.10;;;10.20;99.90;;;;;;5052303;28;20170;-60
2021/12/28 03:41:52;;;;;;;7.43;2.00;;;10.20;99.90;;;;;;5052083;28;20299;-56
2021/12/28 03:44:18;;;;;;;7.00;2.30;;;10.20;99.90;;;;;;5052459;28;20671;-56
2021/12/28 03:46:44;;;;;;;15.73;2.43;;;10.20;99.90;;;;;;5052416;28;20232;-56
2021/12/28 03:49:10;;;;;;;12.13;2.70;;;10.10;99.90;;;;;;5051735;28;20170;-57
2021/12/28 03:51:36;;;;;;;11.87;2.77;;;10.20;99.90;;;;;;5051945;28;20670;-57
2021/12/28 03:54:02;;;;;;;9.03;2.63;;;10.20;99.90;;;;;;5052276;28;20219;-57
2021/12/28 03:56:28;;;;;;;8.00;2.13;;;10.20;99.90;;;;;;5052073;28;20197;-57
2021/12/28 03:58:53;;;;;;;6.20;2.20;;;10.20;99.90;;;;;;5051947;28;20181;-57
2021/12/28 04:01:23;;;;;;;7.87;1.77;;;10.20;99.90;;;;;;5051896;28;20707;-57
2021/12/28 04:03:49;;;;;;;13.63;2.33;;;10.20;99.90;;;;;;5052058;28;20742;-56
2021/12/28 04:06:18;;;;;;;7.53;1.90;;;10.20;99.90;;;;;;5051967;28;20177;-56
2021/12/28 04:08:44;;;;;;;3.80;1.73;;;10.30;99.90;;;;;;5051591;28;20547;-56
2021/12/28 04:13:48;;;;;;;5.30;1.60;;;10.30;99.90;;;;;;5036424;28;20261;-57
2021/12/28 04:16:15;;;;;;;4.13;1.20;;;10.30;99.90;;;;;;5052061;28;20257;-57
2021/12/28 04:18:42;;;;;;;1.67;0.50;;;10.30;99.90;;;;;;5051645;28;20192;-57
2021/12/28 04:21:09;;;;;;;1.67;0.60;;;10.40;99.90;;;;;;5051270;28;20264;-58
2021/12/28 04:23:35;;;;;;;7.63;0.77;;;10.40;99.90;;;;;;5051239;28;20192;-57
2021/12/28 04:26:02;;;;;;;5.13;1.17;;;10.40;99.90;;;;;;5051606;28;20279;-57
2021/12/28 04:28:28;;;;;;;9.80;1.30;;;10.50;99.90;;;;;;5051341;28;20177;-57
2021/12/28 04:30:54;;;;;;;10.67;1.40;;;10.50;99.90;;;;;;5051767;28;20212;-57
2021/12/28 04:33:20;;;;;;;9.30;1.43;;;10.40;99.90;;;;;;5051139;28;20217;-57
2021/12/28 04:35:47;;;;;;;10.90;1.33;;;10.40;99.90;;;;;;5031629;28;20755;-57
2021/12/28 04:38:13;;;;;;;8.93;1.57;;;10.40;99.90;;;;;;5042471;28;20211;-57
2021/12/28 04:40:39;;;;;;;10.03;1.23;;;10.40;99.90;;;;;;5050962;28;20196;-57
2021/12/28 04:43:06;;;;;;;8.57;1.17;;;10.50;99.90;;;;;;5050398;28;20177;-57
2021/12/28 04:45:36;;;;;;;10.23;0.97;;;10.50;99.90;;;;;;5051111;28;20196;-57
2021/12/28 04:48:03;;;;;;;12.73;1.57;;;10.50;99.90;;;;;;5051112;28;20264;-57
2021/12/28 04:50:36;;;;;;;12.23;1.40;;;10.40;99.90;;;;;;5051252;28;20268;-58
2021/12/28 04:53:08;;;;;;;11.97;1.53;;;10.40;99.90;;;;;;5050392;28;20314;-57
2021/12/28 04:55:34;;;;;;;11.77;1.97;;;10.40;99.90;;;;;;5050755;28;20200;-58
2021/12/28 04:57:59;;;;;;;10.93;1.63;;;10.40;99.90;;;;;;5050990;28;20846;-57
2021/12/28 05:00:26;;;;;;;15.97;2.20;;;10.40;99.90;;;;;;5051001;28;20180;-58
2021/12/28 05:02:51;;;;;;;15.27;2.23;;;10.40;99.90;;;;;;5050677;28;20173;-57
2021/12/28 05:05:17;;;;;;;20.10;2.57;;;10.40;99.90;;;;;;5050982;28;20256;-57
2021/12/28 05:07:43;;;;;;;26.17;2.47;;;10.40;99.90;;;;;;5050672;28;20208;-58
2021/12/28 05:10:10;;;;;;;12.70;1.87;;;10.40;99.90;;;;;;5031025;28;20182;-57
2021/12/28 05:12:36;;;;;;;4.83;1.53;;;10.30;99.90;;;;;;5040706;28;20303;-57
2021/12/28 05:15:04;;;;;;;11.33;1.87;;;10.30;99.90;;;;;;5050673;28;20634;-57
2021/12/28 05:17:31;;;;;;;10.47;1.50;;;10.30;99.90;;;;;;5050421;28;20705;-57
2021/12/28 05:19:57;;;;;;;11.90;2.23;;;10.30;99.90;;;;;;5051074;28;20200;-57
2021/12/28 05:22:23;;;;;;;15.50;1.50;;;10.30;99.90;;;;;;5049956;28;20204;-57
2021/12/28 05:24:49;;;;;;;9.47;1.47;;;10.30;99.90;;;;;;5050847;28;20176;-57
2021/12/28 05:27:15;;;;;;;16.93;1.87;;;10.20;99.90;;;;;;5050636;28;20204;-57
2021/12/28 05:29:41;;;;;;;14.40;1.47;;;10.20;99.90;;;;;;5050411;28;20783;-58
2021/12/28 05:32:07;;;;;;;9.90;1.43;;;10.20;99.90;;;;;;5050100;28;20219;-57
2021/12/28 05:34:33;;;;;;;7.23;0.87;;;10.20;99.90;;;;;;5050443;28;20279;-57
2021/12/28 05:36:59;;;;;;;11.07;0.97;;;10.20;99.90;;;;;;5050295;28;20256;-58
2021/12/28 05:39:25;;;;;;;4.13;0.80;;;10.20;99.90;;;;;;5050622;28;20173;-58
2021/12/28 05:41:51;;;;;;;4.53;0.87;;;10.20;99.90;;;;;;5050295;28;20294;-58
2021/12/28 05:44:18;;;;;;;4.37;0.50;;;10.20;99.90;;;;;;5050371;28;20185;-58
2021/12/28 05:46:45;;;;;;;0.80;0.30;;;10.10;99.90;;;;;;5048825;28;20750;-58
2021/12/28 05:49:11;;;;;;;5.40;0.83;;;10.20;99.90;;;;;;5050297;28;20243;-58
2021/12/28 05:51:37;;;;;;;14.37;2.33;;;10.10;99.90;;;;;;5050146;28;20181;-58
2021/12/28 05:54:03;;;;;;;24.13;2.50;;;10.10;99.90;;;;;;5053524;28;20223;-61
2021/12/28 05:56:29;;;;;;;28.03;2.37;;;10.10;99.90;;;;;;5054498;28;20174;-59
2021/12/28 05:58:54;;;;;;;22.97;2.73;;;10.00;99.90;;;;;;5053995;28;20590;-59
2021/12/28 06:01:20;;;;;;;31.30;3.30;;;10.00;99.90;;;;;;5054212;28;20238;-59
2021/12/28 06:03:46;;;;;;;40.13;4.57;;;10.00;99.90;;;;;;5054297;28;20191;-59
2021/12/28 06:06:12;;;;;;;40.60;3.83;;;10.00;99.90;;;;;;5054248;28;20173;-59
2021/12/28 06:08:38;;;;;;;36.40;4.67;;;9.90;99.90;;;;;;5054001;28;20185;-59
2021/12/28 06:11:06;;;;;;;46.70;5.37;;;9.90;99.90;;;;;;5054313;28;20246;-58
2021/12/28 06:13:32;;;;;;;40.90;4.30;;;9.80;99.90;;;;;;5053610;28;20295;-57
2021/12/28 06:15:58;;;;;;;37.40;4.03;;;9.80;99.90;;;;;;5054321;28;20204;-58
2021/12/28 06:18:24;;;;;;;43.70;3.90;;;9.80;99.90;;;;;;5053873;28;20715;-58
2021/12/28 06:20:50;;;;;;;39.43;4.73;;;9.90;99.90;;;;;;5053458;28;20670;-58
2021/12/28 06:23:17;;;;;;;28.97;3.97;;;9.80;99.90;;;;;;5053570;28;20169;-59
2021/12/28 06:25:43;;;;;;;35.37;4.70;;;9.80;99.90;;;;;;5053853;28;20185;-59
2021/12/28 06:28:09;;;;;;;57.23;5.37;;;9.80;99.90;;;;;;5052231;28;20177;-58
2021/12/28 06:30:35;;;;;;;43.10;4.80;;;9.80;99.90;;;;;;5053837;28;20233;-59
2021/12/28 06:33:02;;;;;;;36.47;5.80;;;9.80;99.90;;;;;;5053313;28;20216;-59
2021/12/28 06:35:28;;;;;;;37.10;5.10;;;8.00;99.90;;;;;;5053964;28;20173;-58
2021/12/28 06:37:55;;;;;;;43.80;6.33;;;9.80;99.90;;;;;;5053393;28;20699;-58
2021/12/28 06:40:21;;;;;;;52.63;5.87;;;9.80;99.90;;;;;;5053309;28;20181;-59
2021/12/28 06:42:46;;;;;;;65.83;6.17;;;9.90;99.90;;;;;;5053585;28;20663;-64
2021/12/28 06:45:13;;;;;;;57.23;6.83;;;9.80;99.90;;;;;;5053639;28;20195;-58
2021/12/28 06:47:39;;;;;;;44.37;4.97;;;9.90;99.90;;;;;;5053103;28;20178;-61
2021/12/28 06:50:06;;;;;;;33.47;4.93;;;9.70;99.90;;;;;;5053414;28;20675;-58
2021/12/28 06:52:33;;;;;;;38.03;4.83;;;9.60;99.90;;;;;;5052940;28;20300;-59
2021/12/28 06:54:59;;;;;;;40.63;4.53;;;9.40;99.90;;;;;;5052897;28;20636;-59
2021/12/28 06:57:25;;;;;;;34.83;4.50;;;9.30;99.90;;;;;;5053215;28;20196;-59
2021/12/28 06:59:51;;;;;;;38.33;4.50;;;9.30;99.90;;;;;;5052674;28;20181;-59
2021/12/28 07:02:18;;;;;;;37.23;5.20;;;9.20;99.90;;;;;;5053279;28;20173;-59
2021/12/28 07:04:44;;;;;;;39.63;5.60;;;9.10;99.90;;;;;;5052065;28;20173;-58
2021/12/28 07:07:11;;;;;;;42.73;5.10;;;9.20;99.90;;;;;;5052932;28;20177;-59
2021/12/28 07:09:38;;;;;;;53.67;6.13;;;9.20;99.90;;;;;;5051700;28;20216;-58
2021/12/28 07:12:05;;;;;;;42.10;5.83;;;9.30;99.90;;;;;;5052686;28;20217;-59
2021/12/28 07:14:31;;;;;;;51.63;5.20;;;9.30;99.90;;;;;;5053181;28;20187;-58
2021/12/28 07:16:58;;;;;;;52.43;6.67;;;9.40;99.90;;;;;;5052751;28;20196;-58
2021/12/28 07:19:25;;;;;;;43.43;4.97;;;9.50;99.90;;;;;;5049281;28;20185;-59
2021/12/28 07:21:51;;;;;;;52.07;6.10;;;9.50;99.90;;;;;;5052576;28;20177;-59
2021/12/28 07:24:19;;;;;;;54.23;6.33;;;9.50;99.90;;;;;;5052725;28;20208;-59
2021/12/28 07:26:45;;;;;;;50.33;5.60;;;9.50;99.90;;;;;;5052602;28;20189;-59
2021/12/28 07:29:12;;;;;;;42.53;5.77;;;9.40;99.90;;;;;;5052676;28;20220;-59
2021/12/28 07:31:39;;;;;;;42.57;4.73;;;9.50;99.90;;;;;;5052217;28;20638;-59
2021/12/28 07:34:05;;;;;;;41.23;5.20;;;9.50;99.90;;;;;;5052513;28;20667;-59
2021/12/28 07:36:31;;;;;;;31.37;3.60;;;9.50;99.90;;;;;;5052625;28;20260;-58
2021/12/28 07:38:57;;;;;;;38.17;4.67;;;9.60;99.90;;;;;;5052108;28;20268;-59
2021/12/28 07:41:23;;;;;;;38.03;4.57;;;9.50;99.90;;;;;;5052742;28;20161;-58
2021/12/28 07:43:49;;;;;;;36.67;4.50;;;9.50;99.90;;;;;;5051945;28;20181;-57
2021/12/28 07:46:15;;;;;;;27.97;3.07;;;9.70;99.90;;;;;;5052680;28;20176;-57
2021/12/28 07:48:41;;;;;;;23.17;3.50;;;9.60;99.90;;;;;;5051935;28;20226;-59
2021/12/28 07:51:08;;;;;;;34.70;4.03;;;9.20;99.90;;;;;;5052206;28;20648;-59
2021/12/28 07:53:35;;;;;;;29.63;3.57;;;9.60;99.90;;;;;;5051878;28;20276;-57
2021/12/28 07:56:03;;;;;;;20.13;3.10;;;9.70;99.90;;;;;;5052147;28;20174;-58
2021/12/28 07:58:29;;;;;;;31.83;4.07;;;9.70;99.90;;;;;;5051702;28;20177;-57
2021/12/28 08:00:56;;;;;;;28.60;3.83;;;9.80;99.90;;;;;;5051519;28;20260;-63
2021/12/28 08:03:22;;;;;;;41.80;4.97;;;9.60;99.90;;;;;;5052145;28;20177;-60
2021/12/28 08:05:49;;;;;;;42.40;5.00;;;9.50;99.90;;;;;;5052200;28;20177;-61
2021/12/28 08:08:16;;;;;;;34.50;4.63;;;9.40;99.90;;;;;;5051871;28;20212;-60
2021/12/28 08:10:43;;;;;;;13.10;1.63;;;9.30;99.90;;;;;;5051154;28;20633;-60
2021/12/28 08:13:09;;;;;;;27.87;2.83;;;8.80;99.90;;;;;;5051944;28;20212;-61
2021/12/28 08:15:35;;;;;;;22.07;2.30;;;8.90;99.90;;;;;;5051520;28;20234;-60
2021/12/28 08:18:03;;;;;;;10.80;1.33;;;8.80;99.90;;;;;;5051806;28;20184;-60
2021/12/28 08:20:29;;;;;;;15.20;1.83;;;8.70;99.90;;;;;;5051254;28;20196;-60
2021/12/28 08:22:58;;;;;;;16.47;1.53;;;8.70;99.90;;;;;;5051477;28;20663;-60
2021/12/28 08:25:24;;;;;;;14.47;1.73;;;8.70;99.90;;;;;;5051647;28;20263;-71
2021/12/28 08:27:50;;;;;;;25.10;2.30;;;8.70;99.90;;;;;;5051452;28;20216;-69
2021/12/28 08:30:18;;;;;;;22.23;2.73;;;8.70;99.90;;;;;;5051226;28;20224;-65
2021/12/28 08:32:45;;;;;;;21.50;3.00;;;8.70;99.90;;;;;;5051514;28;20282;-68
2021/12/28 08:35:12;;;;;;;27.03;3.10;;;8.70;99.90;;;;;;5051507;28;20777;-67
2021/12/28 08:37:38;;;;;;;27.17;2.50;;;8.70;99.90;;;;;;5051229;28;20268;-65
2021/12/28 08:40:05;;;;;;;27.30;2.83;;;8.70;99.90;;;;;;5051261;28;20256;-68
2021/12/28 08:42:31;;;;;;;26.60;3.37;;;8.70;99.90;;;;;;5051144;28;20187;-72
2021/12/28 08:44:57;;;;;;;29.50;4.17;;;8.80;99.90;;;;;;5051065;28;20181;-68
2021/12/28 08:47:26;;;;;;;38.10;4.03;;;8.70;99.90;;;;;;5050752;28;20182;-69
2021/12/28 08:49:57;;;;;;;38.87;4.53;;;8.70;99.90;;;;;;5051312;28;20177;-67
2021/12/28 08:52:24;;;;;;;36.60;4.97;;;8.80;99.90;;;;;;5050607;28;20209;-67
2021/12/28 08:54:50;;;;;;;51.67;5.70;;;8.80;99.90;;;;;;5051078;28;20181;-66
2021/12/28 08:57:18;;;;;;;42.30;5.47;;;8.80;99.90;;;;;;5050610;28;20177;-66
2021/12/28 08:59:44;;;;;;;42.90;6.07;;;8.90;99.90;;;;;;5043279;28;20177;-65
2021/12/28 09:02:10;;;;;;;45.30;6.03;;;9.20;99.90;;;;;;5050639;28;20235;-67
2021/12/28 09:04:43;;;;;;;37.00;4.40;;;9.20;99.90;;;;;;5050437;28;20185;-62
2021/12/28 09:07:18;;;;;;;37.73;4.47;;;9.50;99.90;;;;;;5051016;28;20226;-66
2021/12/28 09:09:45;;;;;;;39.33;4.73;;;9.30;99.90;;;;;;5047933;28;20596;-63
2021/12/28 09:12:12;;;;;;;43.00;5.27;;;9.60;99.90;;;;;;5041147;28;20197;-64
2021/12/28 09:14:39;;;;;;;48.10;6.23;;;9.60;99.90;;;;;;5042510;28;20219;-65
2021/12/28 09:17:05;;;;;;;52.20;5.53;;;9.60;99.90;;;;;;5050725;28;20624;-65
2021/12/28 09:19:31;;;;;;;42.10;5.70;;;9.70;99.90;;;;;;5050340;28;20176;-64
2021/12/28 09:21:59;;;;;;;44.17;6.47;;;9.50;99.90;;;;;;5050381;28;20297;-65
2021/12/28 09:24:24;;;;;;;44.23;6.23;;;9.50;99.90;;;;;;5037441;28;20395;-65
2021/12/28 09:26:50;;;;;;;55.80;7.23;;;9.70;99.90;;;;;;5047965;28;20662;-64
2021/12/28 09:29:16;;;;;;;60.10;7.10;;;9.80;99.90;;;;;;5049946;28;20619;-64
2021/12/28 09:31:42;;;;;;;62.37;7.57;;;;;;;;;;5050682;28;20161;-65
2021/12/28 09:34:08;;;;;;;47.60;6.90;;;;;;;;;;5049656;28;20228;-65
2021/12/28 09:36:35;;;;;;;48.03;8.23;;;9.70;99.90;;;;;;5050539;28;20192;-57
2021/12/28 09:39:01;;;;;;;43.57;5.53;;;9.80;99.90;;;;;;5050726;28;20330;-57
2021/12/28 09:41:27;;;;;;;57.70;6.73;;;9.90;99.90;;;;;;5050463;28;20177;-62
2021/12/28 09:43:53;;;;;;;58.33;6.23;;;9.90;99.90;;;;;;5050299;28;20165;-62
2021/12/28 09:46:18;;;;;;;48.73;6.77;;;9.90;99.90;;;;;;5050361;28;20546;-62
2021/12/28 09:48:44;;;;;;;52.63;7.00;;;9.90;99.90;;;;;;5049843;28;20311;-64
2021/12/28 09:51:10;;;;;;;63.20;7.03;;;9.90;99.90;;;;;;5049089;28;20177;-63
2021/12/28 09:53:38;;;;;;;69.17;7.93;;;9.90;99.90;;;;;;5050426;28;20209;-63
2021/12/28 09:56:05;;;;;;;55.83;7.03;;;10.00;99.90;;;;;;5050189;28;20177;-64
2021/12/28 09:58:36;;;;;;;61.30;7.93;;;9.90;99.90;;;;;;5050431;28;20177;-63
2021/12/28 10:01:04;;;;;;;51.47;6.90;;;9.90;99.90;;;;;;5050492;28;20189;-65
2021/12/28 10:03:30;;;;;;;66.53;7.73;;;9.90;99.90;;;;;;5049934;28;20173;-64
2021/12/28 10:05:56;;;;;;;51.67;7.00;;;10.00;99.90;;;;;;5049458;28;20223;-64
2021/12/28 10:08:26;;;;;;;43.27;5.93;;;10.00;99.90;;;;;;5049277;28;20184;-63
2021/12/28 10:10:56;;;;;;;52.30;7.00;;;10.00;99.90;;;;;;5050096;28;20169;-63
2021/12/28 10:13:26;;;;;;;33.53;5.43;;;10.20;99.90;;;;;;5050129;28;20205;-64
2021/12/28 10:15:53;;;;;;;47.07;6.30;;;10.10;99.90;;;;;;5048064;28;20603;-64
2021/12/28 10:18:20;;;;;;;37.63;4.63;;;10.30;99.90;;;;;;5050409;28;20282;-64
2021/12/28 10:20:49;;;;;;;38.83;5.67;;;10.40;99.90;;;;;;5050273;28;20227;-64
2021/12/28 10:23:18;;;;;;;32.40;4.73;;;10.40;99.90;;;;;;5049379;28;20177;-64
2021/12/28 10:25:50;;;;;;;46.80;6.83;;;10.40;99.90;;;;;;5049936;28;20258;-63
2021/12/28 10:28:25;;;;;;;44.07;6.23;;;10.20;99.90;;;;;;5033454;28;20511;-63
2021/12/28 10:30:54;;;;;;;43.93;5.43;;;10.30;99.90;;;;;;5030030;28;20676;-63
2021/12/28 10:33:25;;;;;;;39.03;6.10;;;10.30;99.90;;;;;;5030138;28;20576;-63
2021/12/28 10:35:55;;;;;;;33.77;6.17;;;10.30;99.90;;;;;;5030165;28;20220;-63
2021/12/28 10:38:27;;;;;;;39.97;5.23;;;10.30;99.90;;;;;;5030552;28;20182;-63
2021/12/28 10:40:57;;;;;;;27.03;4.50;;;10.30;99.90;;;;;;5034012;28;20267;-62
2021/12/28 10:43:28;;;;;;;57.27;7.67;;;10.40;99.90;;;;;;5033737;28;20186;-63
2021/12/28 10:46:08;;;;;;;54.53;7.57;;;10.30;99.90;;;;;;5040407;28;20177;-62
2021/12/28 10:48:46;;;;;;;46.90;5.83;;;10.20;99.90;;;;;;5053543;28;20666;-62
2021/12/28 10:51:15;;;;;;;37.80;5.30;;;10.40;99.90;;;;;;5053342;28;20765;-63
2021/12/28 10:56:25;;;;;;;48.70;6.00;;;10.70;99.90;;;;;;5051480;28;20208;-63
2021/12/28 10:58:52;;;;;;;35.37;6.30;;;10.70;99.90;;;;;;5052058;28;20264;-64
2021/12/28 11:01:22;;;;;;;41.33;6.03;;;10.80;99.90;;;;;;5052204;28;20697;-64
2021/12/28 11:04:00;;;;;;;57.43;6.83;;;10.90;99.90;;;;;;5053103;28;20173;-63
2021/12/28 11:06:43;;;;;;;43.27;6.30;;;11.10;99.90;;;;;;5052975;28;20216;-63
2021/12/28 11:09:16;;;;;;;31.60;5.57;;;11.00;99.90;;;;;;5052335;28;20627;-63
2021/12/28 11:11:42;;;;;;;25.60;4.23;;;10.90;99.90;;;;;;5052889;28;20208;-63
2021/12/28 11:14:17;;;;;;;31.30;4.73;;;11.00;99.90;;;;;;5052414;28;20570;-63
2021/12/28 11:16:51;;;;;;;30.03;4.20;;;11.00;99.90;;;;;;5052616;28;20200;-63
2021/12/28 11:19:24;;;;;;;20.50;3.80;;;11.40;99.90;;;;;;5052880;28;20199;-64
2021/12/28 11:21:53;;;;;;;28.83;4.50;;;11.50;99.90;;;;;;5053148;28;20181;-63
2021/12/28 11:24:19;;;;;;;30.17;4.90;;;11.60;99.90;;;;;;5052773;28;20659;-63
2021/12/28 11:26:51;;;;;;;24.87;4.23;;;11.50;99.90;;;;;;5052823;28;20286;-63
2021/12/28 11:29:20;;;;;;;27.67;4.43;;;11.30;99.90;;;;;;5052669;28;20217;-63
2021/12/28 11:31:59;;;;;;;30.77;4.47;;;11.10;99.90;;;;;;5051415;28;20260;-63
2021/12/28 11:34:32;;;;;;;22.17;4.30;;;11.20;99.90;;;;;;5052845;28;20212;-63
2021/12/28 11:37:04;;;;;;;18.87;3.50;;;11.30;99.90;;;;;;5052792;28;20180;-64
2021/12/28 11:39:34;;;;;;;23.23;3.83;;;11.20;99.90;;;;;;5052614;28;20256;-63
2021/12/28 11:42:01;;;;;;;23.30;4.20;;;11.20;99.90;;;;;;5052532;28;20184;-63
2021/12/28 11:44:28;;;;;;;25.90;3.83;;;11.20;99.90;;;;;;5052604;28;20195;-62
2021/12/28 11:46:55;;;;;;;22.43;3.87;;;11.30;99.90;;;;;;5052504;28;20171;-63
2021/12/28 11:49:25;;;;;;;27.53;3.97;;;11.30;99.90;;;;;;5052324;28;20165;-63
2021/12/28 11:51:52;;;;;;;17.83;3.63;;;11.30;99.90;;;;;;5051841;28;20260;-63
2021/12/28 11:54:19;;;;;;;15.67;3.20;;;12.20;99.90;;;;;;5052474;28;20201;-63
2021/12/28 11:56:52;;;;;;;16.43;3.20;;;13.00;99.90;;;;;;5052405;28;20162;-63
2021/12/28 11:59:23;;;;;;;14.70;3.70;;;13.10;99.90;;;;;;5052341;28;20181;-64
2021/12/28 12:01:52;;;;;;;20.77;3.13;;;13.80;99.90;;;;;;5052221;28;20181;-64
2021/12/28 12:04:30;;;;;;;17.15;3.38;;;14.50;99.90;;;;;;5052391;28;20239;-63
2021/12/28 12:07:09;;;;;;;19.95;3.35;;;15.10;99.90;;;;;;5052087;28;20165;-64
2021/12/28 12:09:50;;;;;;;20.70;3.58;;;15.30;99.90;;;;;;5051901;28;20644;-63
2021/12/28 12:12:47;;;;;;;18.20;3.38;;;15.60;99.90;;;;;;5052092;28;20205;-64
2021/12/28 12:15:16;;;;;;;16.48;3.63;;;16.00;99.90;;;;;;5051577;28;20189;-63
2021/12/28 12:17:43;;;;;;;14.88;2.80;;;16.00;99.90;;;;;;5052014;28;20177;-64
2021/12/28 12:20:25;;;;;;;12.45;3.25;;;16.10;99.90;;;;;;5051904;28;20302;-64
2021/12/28 12:23:04;;;;;;;15.13;2.85;;;16.50;99.90;;;;;;5052034;28;20180;-64
2021/12/28 12:25:42;;;;;;;12.10;2.45;;;16.30;99.90;;;;;;5051811;28;20184;-64
2021/12/28 12:28:10;;;;;;;12.48;2.80;;;16.40;99.90;;;;;;5051617;28;20205;-64
2021/12/28 12:30:54;;;;;;;10.40;2.38;;;16.60;99.90;;;;;;5051366;28;20308;-63
2021/12/28 12:33:21;;;;;;;14.15;2.60;;;16.50;99.90;;;;;;5051469;28;20296;-63
2021/12/28 12:35:55;;;;;;;13.95;2.85;;;16.90;99.90;;;;;;5051510;28;20188;-63
2021/12/28 12:38:24;;;;;;;11.07;2.38;;;17.20;99.90;;;;;;5051674;28;20263;-64
2021/12/28 12:41:00;;;;;;;10.85;2.60;;;17.10;99.90;;;;;;5051305;28;20173;-64
2021/12/28 12:43:37;;;;;;;15.65;2.88;;;17.00;99.90;;;;;;5051467;28;20188;-64
2021/12/28 12:46:05;;;;;;;13.93;2.75;;;17.00;99.90;;;;;;5051327;28;20173;-64
2021/12/28 12:48:37;;;;;;;10.10;2.72;;;16.20;99.90;;;;;;5051393;28;20177;-64
2021/12/28 12:51:24;;;;;;;19.35;2.92;;;15.00;99.90;;;;;;5051279;28;20204;-64
2021/12/28 12:54:14;;;;;;;16.00;2.38;;;14.20;99.90;;;;;;5050933;28;20671;-63